Time;durP1;ratioP1;P1;durP2;ratioP2;P2;SDS_P1;SDS_P2;PMS_P1;PMS_P2;Temp;Humidity;BMP_temperature;BMP_pressure;BME280_temperature;BME280_humidity;BME280_pressure;Samples;Min_cycle;Max_cycle;Signal;HPM_P1;HPM_P2
2022/06/28 00:00:11;;;;;;;4.25;2.08;;;25.00;76.00;;;;;;4979341;28;20200;-72
2022/06/28 00:02:39;;;;;;;3.92;2.15;;;24.90;75.90;;;;;;4971811;28;20197;-71
2022/06/28 00:05:09;;;;;;;3.22;2.40;;;24.90;75.90;;;;;;4975178;28;20198;-72
2022/06/28 00:07:38;;;;;;;4.22;2.10;;;24.90;76.00;;;;;;4986952;28;20232;-71
2022/06/28 00:10:08;;;;;;;3.75;2.38;;;24.90;76.00;;;;;;4980386;28;20190;-71
2022/06/28 00:12:37;;;;;;;3.53;2.33;;;24.90;76.10;;;;;;4981741;28;20208;-71
2022/06/28 00:17:58;;;;;;;4.20;2.17;;;24.80;76.10;;;;;;4981957;28;20189;-72
2022/06/28 00:20:27;;;;;;;3.60;2.28;;;24.90;76.20;;;;;;4980250;28;20228;-71
2022/06/28 00:22:55;;;;;;;4.28;2.25;;;24.80;76.00;;;;;;4969340;28;20678;-71
2022/06/28 00:25:23;;;;;;;4.65;2.30;;;24.80;76.00;;;;;;4975023;28;20204;-71
2022/06/28 00:27:52;;;;;;;3.85;2.25;;;24.80;76.00;;;;;;4972885;28;20578;-71
2022/06/28 00:30:21;;;;;;;3.28;2.28;;;24.80;76.00;;;;;;4969215;28;20260;-71
2022/06/28 00:32:50;;;;;;;4.85;2.38;;;24.80;76.00;;;;;;4974460;28;20572;-71
2022/06/28 00:35:18;;;;;;;5.80;2.58;;;24.80;76.00;;;;;;4976953;28;20213;-71
2022/06/28 00:37:47;;;;;;;5.85;3.03;;;24.80;76.10;;;;;;4983393;28;21594;-71
2022/06/28 00:40:15;;;;;;;5.30;2.60;;;24.70;76.00;;;;;;4978299;28;20196;-71
2022/06/28 00:42:43;;;;;;;3.83;2.60;;;24.70;76.00;;;;;;4977794;28;20213;-71
2022/06/28 00:45:13;;;;;;;6.47;2.63;;;24.70;76.10;;;;;;4978060;28;20204;-73
2022/06/28 00:47:43;;;;;;;5.13;2.45;;;24.70;76.20;;;;;;4984272;28;20204;-71
2022/06/28 00:50:12;;;;;;;3.47;2.47;;;24.70;76.10;;;;;;4976986;28;20189;-71
2022/06/28 00:53:01;;;;;;;3.63;2.33;;;24.70;76.10;;;;;;4981551;28;20698;-72
2022/06/28 00:55:30;;;;;;;4.60;2.45;;;24.70;76.20;;;;;;4974765;28;20200;-71
2022/06/28 00:57:59;;;;;;;5.75;2.63;;;24.70;76.20;;;;;;4977118;28;20198;-72
2022/06/28 01:00:27;;;;;;;4.47;2.60;;;24.70;76.10;;;;;;4978074;28;20936;-71
2022/06/28 01:02:57;;;;;;;3.70;2.25;;;24.70;76.90;;;;;;4983025;28;20546;-71
2022/06/28 01:05:25;;;;;;;5.90;3.00;;;24.70;76.70;;;;;;4982757;28;20192;-70
2022/06/28 01:07:54;;;;;;;6.55;2.30;;;24.60;76.40;;;;;;4980618;28;20208;-71
2022/06/28 01:10:23;;;;;;;3.25;2.20;;;24.60;76.40;;;;;;4983538;28;20190;-71
2022/06/28 01:12:52;;;;;;;3.25;2.30;;;24.60;76.40;;;;;;4979660;28;20201;-72
2022/06/28 01:15:20;;;;;;;9.23;3.17;;;24.60;76.30;;;;;;4983980;28;20614;-71
2022/06/28 01:17:49;;;;;;;5.35;2.72;;;24.60;76.30;;;;;;4975568;28;20623;-73
2022/06/28 01:20:19;;;;;;;6.43;2.60;;;24.60;76.30;;;;;;4977589;28;20403;-71
2022/06/28 01:22:49;;;;;;;3.90;2.50;;;24.60;76.30;;;;;;4984974;28;20204;-71
2022/06/28 01:25:17;;;;;;;5.68;2.60;;;24.60;76.30;;;;;;4983709;28;20828;-71
2022/06/28 01:27:46;;;;;;;3.72;2.47;;;24.60;76.20;;;;;;4985508;28;20208;-71
2022/06/28 01:30:15;;;;;;;5.40;2.38;;;24.50;76.20;;;;;;4975448;28;21761;-70
2022/06/28 01:32:43;;;;;;;4.47;2.67;;;24.50;76.20;;;;;;4979432;28;20713;-72
2022/06/28 01:35:12;;;;;;;6.57;3.10;;;24.50;76.20;;;;;;4983149;28;20204;-71
2022/06/28 01:37:40;;;;;;;3.63;2.60;;;24.50;76.20;;;;;;4979947;28;21648;-71
2022/06/28 01:40:11;;;;;;;4.05;2.45;;;24.50;76.30;;;;;;4970766;28;20189;-71
2022/06/28 01:42:39;;;;;;;5.32;2.70;;;24.50;76.30;;;;;;4985952;28;20288;-71
2022/06/28 01:45:10;;;;;;;4.60;2.90;;;24.40;76.30;;;;;;4983166;28;20722;-71
2022/06/28 01:47:44;;;;;;;4.22;2.42;;;24.40;76.20;;;;;;4979441;28;20822;-71
2022/06/28 01:50:12;;;;;;;6.15;2.90;;;24.40;76.30;;;;;;4985400;28;20620;-71
2022/06/28 01:52:43;;;;;;;5.07;2.70;;;24.40;76.30;;;;;;4973079;28;20194;-71
2022/06/28 01:55:13;;;;;;;8.23;3.08;;;24.30;76.30;;;;;;4973166;28;20194;-70
2022/06/28 01:57:41;;;;;;;5.25;2.85;;;24.30;76.30;;;;;;4983916;28;20201;-73
2022/06/28 02:00:11;;;;;;;8.35;3.08;;;24.30;76.30;;;;;;4987512;28;20200;-71
2022/06/28 02:02:39;;;;;;;5.60;2.50;;;24.30;76.40;;;;;;4976641;28;20192;-71
2022/06/28 02:05:09;;;;;;;4.35;3.13;;;24.30;76.50;;;;;;4978907;28;20190;-71
2022/06/28 02:07:37;;;;;;;4.20;2.88;;;24.30;76.60;;;;;;4980871;28;20201;-71
2022/06/28 02:10:06;;;;;;;5.20;2.90;;;24.30;76.70;;;;;;4981735;28;20221;-71
2022/06/28 02:12:36;;;;;;;5.60;3.15;;;24.20;77.00;;;;;;4978121;28;20578;-72
2022/06/28 02:15:06;;;;;;;7.45;3.13;;;24.20;77.10;;;;;;4980820;28;20225;-71
2022/06/28 02:17:34;;;;;;;4.38;2.92;;;24.20;77.10;;;;;;4977447;28;20204;-71
2022/06/28 02:20:04;;;;;;;8.95;2.78;;;24.10;77.90;;;;;;4969397;28;20567;-72
2022/06/28 02:22:32;;;;;;;4.85;2.97;;;24.10;77.20;;;;;;4978992;28;20196;-72
2022/06/28 02:25:01;;;;;;;6.00;2.60;;;24.10;77.30;;;;;;4980238;28;20557;-72
2022/06/28 02:27:29;;;;;;;6.80;2.88;;;24.10;77.30;;;;;;4970001;28;20193;-72
2022/06/28 02:29:59;;;;;;;8.30;2.70;;;24.10;77.50;;;;;;4973157;28;20229;-72
2022/06/28 02:32:27;;;;;;;6.18;2.72;;;24.10;77.60;;;;;;4985539;28;20689;-72
2022/06/28 02:40:27;;;;;;;5.88;2.70;;;24.00;77.90;;;;;;4981006;28;20201;-72
2022/06/28 02:42:57;;;;;;;6.38;3.28;;;24.00;77.80;;;;;;4982608;28;20205;-72
2022/06/28 02:45:29;;;;;;;4.85;2.92;;;24.00;77.80;;;;;;4984073;28;20664;-72
2022/06/28 02:47:58;;;;;;;6.57;2.72;;;24.00;78.00;;;;;;4977506;28;20227;-72
2022/06/28 02:50:27;;;;;;;8.02;3.05;;;24.00;77.90;;;;;;4974313;28;20226;-72
2022/06/28 02:52:55;;;;;;;8.77;2.85;;;24.00;78.00;;;;;;4984919;28;20598;-72
2022/06/28 02:55:24;;;;;;;6.72;3.30;;;24.00;78.00;;;;;;4974369;28;20830;-72
2022/06/28 02:57:52;;;;;;;5.72;3.15;;;24.00;78.00;;;;;;4982544;28;20208;-72
2022/06/28 03:00:21;;;;;;;6.90;2.55;;;24.00;78.00;;;;;;4972798;28;20774;-72
2022/06/28 03:02:51;;;;;;;6.50;2.55;;;24.00;78.10;;;;;;4981150;28;20204;-72
2022/06/28 03:05:22;;;;;;;5.85;2.90;;;24.00;78.10;;;;;;4982322;28;20193;-72
2022/06/28 03:07:50;;;;;;;4.45;2.90;;;24.00;78.30;;;;;;4984361;28;20200;-72
2022/06/28 03:10:19;;;;;;;6.13;2.97;;;24.00;78.30;;;;;;4985613;28;20221;-72
2022/06/28 03:12:48;;;;;;;8.93;3.65;;;24.00;78.30;;;;;;4982395;28;20209;-74
2022/06/28 03:15:16;;;;;;;5.88;3.38;;;24.00;78.30;;;;;;4975605;28;20197;-72
2022/06/28 03:17:49;;;;;;;4.30;2.80;;;24.00;78.40;;;;;;4975682;28;20244;-72
2022/06/28 03:20:19;;;;;;;8.35;3.17;;;24.00;78.40;;;;;;4973316;28;20225;-72
2022/06/28 03:22:47;;;;;;;5.55;3.08;;;24.00;78.40;;;;;;4970516;28;20196;-72
2022/06/28 03:25:16;;;;;;;5.57;3.50;;;24.00;78.40;;;;;;4974997;28;20198;-72
2022/06/28 03:27:44;;;;;;;7.28;3.90;;;24.00;78.50;;;;;;4971542;28;20446;-73
2022/06/28 03:30:13;;;;;;;6.13;3.00;;;24.00;79.60;;;;;;4974989;28;20864;-72
2022/06/28 03:32:42;;;;;;;8.80;3.20;;;24.00;79.30;;;;;;4970527;28;20723;-72
2022/06/28 03:35:11;;;;;;;5.22;3.05;;;24.00;79.30;;;;;;4972591;28;20683;-72
2022/06/28 03:37:41;;;;;;;8.20;2.92;;;24.00;79.20;;;;;;4975556;28;20197;-72
2022/06/28 03:40:10;;;;;;;5.75;2.85;;;24.00;79.20;;;;;;4978726;28;20205;-72
2022/06/28 03:42:39;;;;;;;6.30;3.15;;;24.00;79.30;;;;;;4976721;28;20223;-72
2022/06/28 03:45:09;;;;;;;3.75;2.53;;;24.00;79.10;;;;;;4975470;28;20972;-72
2022/06/28 03:47:37;;;;;;;8.23;3.20;;;24.00;79.10;;;;;;4976071;28;20209;-72
2022/06/28 03:50:06;;;;;;;7.13;3.03;;;24.10;79.30;;;;;;4971873;28;20224;-72
2022/06/28 03:52:34;;;;;;;6.00;2.78;;;24.00;79.30;;;;;;4976579;28;20205;-72
2022/06/28 03:55:06;;;;;;;6.80;2.83;;;24.10;79.40;;;;;;4979905;28;20201;-72
2022/06/28 03:57:34;;;;;;;5.15;3.13;;;24.10;79.40;;;;;;4981953;28;20272;-72
2022/06/28 04:00:04;;;;;;;4.85;3.25;;;24.10;79.40;;;;;;4980809;28;20193;-73
2022/06/28 04:02:32;;;;;;;5.55;2.92;;;24.10;79.40;;;;;;4981236;28;20829;-72
2022/06/28 04:05:00;;;;;;;5.95;3.65;;;24.10;79.40;;;;;;4979381;28;20636;-72
2022/06/28 04:07:29;;;;;;;3.80;2.85;;;24.10;79.30;;;;;;4978304;28;20223;-73
2022/06/28 04:09:57;;;;;;;8.65;3.30;;;24.20;79.30;;;;;;4977949;28;20220;-73
2022/06/28 04:12:27;;;;;;;8.68;3.00;;;24.20;79.20;;;;;;4980538;28;20201;-72
2022/06/28 04:14:55;;;;;;;6.47;3.20;;;24.20;79.10;;;;;;4965978;28;20644;-72
2022/06/28 04:17:24;;;;;;;3.97;2.45;;;24.20;79.10;;;;;;4980002;28;20205;-73
2022/06/28 04:19:52;;;;;;;6.07;3.03;;;24.20;78.90;;;;;;4972747;28;20228;-72
2022/06/28 04:22:21;;;;;;;9.43;3.22;;;24.30;78.90;;;;;;4968752;28;20220;-72
2022/06/28 04:24:49;;;;;;;5.78;3.25;;;24.30;78.80;;;;;;4967652;28;20204;-72
2022/06/28 04:27:17;;;;;;;8.35;3.70;;;24.30;78.80;;;;;;4981383;28;20193;-72
2022/06/28 04:29:47;;;;;;;4.72;3.15;;;24.30;78.80;;;;;;4981187;28;20200;-72
2022/06/28 04:32:16;;;;;;;8.23;3.63;;;24.30;78.80;;;;;;4979716;28;20204;-73
2022/06/28 04:34:44;;;;;;;8.70;3.35;;;24.40;78.70;;;;;;4985874;28;20193;-72
2022/06/28 04:37:12;;;;;;;8.02;3.15;;;24.40;78.60;;;;;;4984363;28;20289;-72
2022/06/28 04:39:41;;;;;;;6.82;3.60;;;24.50;78.60;;;;;;4987283;28;20200;-72
2022/06/28 04:42:09;;;;;;;8.63;3.42;;;24.50;78.60;;;;;;4985899;28;20224;-72
2022/06/28 04:44:38;;;;;;;6.88;3.50;;;24.50;78.50;;;;;;4987079;28;20200;-73
2022/06/28 04:47:08;;;;;;;5.78;3.28;;;24.50;78.60;;;;;;4986673;28;20193;-72
2022/06/28 04:49:37;;;;;;;8.25;3.38;;;24.50;78.50;;;;;;4987049;28;20228;-73
2022/06/28 04:52:06;;;;;;;6.57;3.33;;;24.50;78.50;;;;;;4989628;28;20679;-73
2022/06/28 04:54:35;;;;;;;8.15;3.50;;;24.50;78.50;;;;;;4982890;28;20209;-72
2022/06/28 04:57:03;;;;;;;12.45;4.57;;;24.60;78.50;;;;;;4980994;28;20198;-73
2022/06/28 04:59:32;;;;;;;9.50;3.50;;;24.50;78.40;;;;;;4982919;28;20202;-73
2022/06/28 05:02:00;;;;;;;8.43;3.60;;;24.60;78.30;;;;;;4983789;28;20213;-72
2022/06/28 05:04:30;;;;;;;7.15;3.42;;;24.60;78.30;;;;;;4984405;28;20714;-72
2022/06/28 05:06:58;;;;;;;12.45;4.10;;;24.60;78.30;;;;;;4982976;28;20208;-72
2022/06/28 05:09:27;;;;;;;11.10;3.35;;;24.60;78.20;;;;;;4982435;28;20197;-73
2022/06/28 05:12:04;;;;;;;10.80;3.40;;;24.60;78.20;;;;;;4985168;28;20757;-73
2022/06/28 05:14:32;;;;;;;13.80;4.38;;;24.70;78.20;;;;;;4980738;28;20200;-72
2022/06/28 05:17:01;;;;;;;11.07;4.03;;;24.70;78.20;;;;;;4981889;28;20205;-73
2022/06/28 05:19:33;;;;;;;12.25;3.58;;;24.70;78.20;;;;;;4983788;28;20633;-73
2022/06/28 05:22:02;;;;;;;13.23;3.47;;;24.80;79.10;;;;;;4984559;28;20926;-73
2022/06/28 05:24:30;;;;;;;6.03;3.72;;;24.80;78.20;;;;;;4972082;28;20255;-73
2022/06/28 05:27:00;;;;;;;6.50;3.13;;;24.80;78.00;;;;;;4984787;28;20235;-74
2022/06/28 05:29:28;;;;;;;9.48;3.30;;;24.80;77.90;;;;;;4981394;28;20202;-73
2022/06/28 05:31:56;;;;;;;7.10;3.28;;;24.90;77.90;;;;;;4984024;28;20217;-73
2022/06/28 05:34:25;;;;;;;10.75;4.10;;;24.90;77.70;;;;;;4987663;28;20200;-73
2022/06/28 05:36:55;;;;;;;10.65;4.47;;;25.00;77.70;;;;;;4987929;28;20205;-73
2022/06/28 05:39:24;;;;;;;12.60;3.58;;;25.00;77.60;;;;;;4983408;28;20193;-73
2022/06/28 05:41:53;;;;;;;9.25;3.70;;;25.00;77.50;;;;;;4988297;28;20201;-73
2022/06/28 05:44:21;;;;;;;11.65;3.92;;;25.00;77.50;;;;;;4983574;28;20661;-73
2022/06/28 05:46:50;;;;;;;8.10;3.78;;;25.10;77.30;;;;;;4986316;28;20200;-73
2022/06/28 05:49:19;;;;;;;11.38;3.72;;;25.00;77.20;;;;;;4982894;28;20250;-73
2022/06/28 05:51:47;;;;;;;8.95;3.90;;;25.10;77.20;;;;;;4985865;28;20221;-73
2022/06/28 05:54:17;;;;;;;10.25;4.00;;;25.10;77.20;;;;;;4989425;28;20189;-74
2022/06/28 05:56:45;;;;;;;8.73;3.58;;;25.20;77.30;;;;;;4986403;28;20185;-73
2022/06/28 05:59:13;;;;;;;8.73;3.70;;;25.10;77.20;;;;;;4985919;28;20200;-73
2022/06/28 06:01:42;;;;;;;7.45;3.50;;;25.20;77.20;;;;;;4987426;28;20897;-73
2022/06/28 06:04:10;;;;;;;8.27;3.60;;;25.20;77.20;;;;;;4985555;28;20228;-73
2022/06/28 06:06:39;;;;;;;10.45;3.50;;;25.20;77.10;;;;;;4993915;28;20204;-73
2022/06/28 06:09:08;;;;;;;8.27;3.75;;;25.30;77.20;;;;;;4986106;28;20723;-73
2022/06/28 06:11:38;;;;;;;8.93;4.05;;;25.30;77.10;;;;;;4985838;28;20220;-73
2022/06/28 06:14:07;;;;;;;8.93;3.63;;;25.30;77.10;;;;;;4988226;28;20216;-75
2022/06/28 06:16:36;;;;;;;8.95;3.72;;;25.40;77.10;;;;;;4981830;28;20201;-73
2022/06/28 06:19:04;;;;;;;7.00;4.68;;;25.30;77.00;;;;;;4988135;28;20909;-73
2022/06/28 06:21:33;;;;;;;13.02;3.75;;;25.40;77.20;;;;;;4976669;28;20233;-73
2022/06/28 06:24:01;;;;;;;10.95;3.83;;;25.40;77.20;;;;;;4985211;28;20248;-73
2022/06/28 06:26:31;;;;;;;6.72;3.80;;;25.40;77.10;;;;;;4983584;28;20193;-73
2022/06/28 06:29:01;;;;;;;5.07;3.20;;;25.50;77.10;;;;;;4982528;28;20287;-73
2022/06/28 06:31:30;;;;;;;7.70;3.85;;;25.50;77.20;;;;;;4990401;28;20874;-73
2022/06/28 06:33:59;;;;;;;5.55;3.38;;;25.50;77.20;;;;;;4990296;28;20193;-73
2022/06/28 06:36:50;;;;;;;5.88;3.50;;;25.50;77.20;;;;;;4981473;28;20201;-75
2022/06/28 06:39:19;;;;;;;8.25;3.95;;;25.60;77.50;;;;;;4973246;28;20201;-73
2022/06/28 06:41:47;;;;;;;5.95;3.25;;;25.60;77.30;;;;;;4979961;28;20193;-73
2022/06/28 06:44:17;;;;;;;7.95;3.60;;;25.60;77.30;;;;;;4985493;28;20201;-73
2022/06/28 06:46:45;;;;;;;7.15;3.33;;;25.70;77.20;;;;;;4983194;28;20189;-73
2022/06/28 06:49:17;;;;;;;6.78;3.33;;;25.70;77.10;;;;;;4979370;28;20289;-73
2022/06/28 06:51:48;;;;;;;7.68;3.28;;;25.80;77.10;;;;;;4983853;28;20210;-73
2022/06/28 06:54:16;;;;;;;5.55;3.42;;;25.80;76.90;;;;;;4981654;28;20189;-73
2022/06/28 06:56:46;;;;;;;11.85;3.90;;;25.80;76.80;;;;;;4981013;28;20706;-73
2022/06/28 06:59:17;;;;;;;7.40;3.85;;;25.90;76.80;;;;;;4988822;28;20203;-74
2022/06/28 07:01:45;;;;;;;10.05;3.67;;;25.90;76.70;;;;;;4979218;28;20197;-75
2022/06/28 07:04:15;;;;;;;9.60;3.70;;;26.00;76.80;;;;;;4983850;28;20246;-74
2022/06/28 07:06:44;;;;;;;9.15;4.00;;;26.00;76.60;;;;;;4983212;28;20284;-74
2022/06/28 07:09:13;;;;;;;5.57;4.00;;;26.10;76.50;;;;;;4982732;28;20209;-74
2022/06/28 07:11:42;;;;;;;5.82;3.42;;;26.10;76.50;;;;;;4983792;28;20320;-74
2022/06/28 07:14:10;;;;;;;11.38;4.10;;;26.10;76.60;;;;;;4981665;28;20193;-74
2022/06/28 07:16:40;;;;;;;6.80;3.60;;;26.20;76.60;;;;;;4981815;28;20201;-74
2022/06/28 07:19:08;;;;;;;6.82;3.60;;;26.20;76.40;;;;;;4991412;28;20250;-74
2022/06/28 07:21:36;;;;;;;24.85;7.05;;;26.20;76.10;;;;;;4987420;28;20239;-75
2022/06/28 07:24:07;;;;;;;12.52;5.20;;;26.30;76.10;;;;;;4983062;28;20197;-75
2022/06/28 07:26:36;;;;;;;8.02;3.88;;;26.30;75.90;;;;;;4978606;28;20197;-74
2022/06/28 07:29:05;;;;;;;11.57;4.55;;;26.40;75.80;;;;;;4982656;28;20193;-73
2022/06/28 07:31:44;;;;;;;6.80;3.85;;;26.40;75.80;;;;;;4979219;28;20686;-73
2022/06/28 07:34:13;;;;;;;6.78;3.33;;;26.50;75.90;;;;;;4981481;28;20562;-74
2022/06/28 07:36:41;;;;;;;8.73;2.88;;;26.50;75.70;;;;;;4981211;28;20673;-75
2022/06/28 07:39:10;;;;;;;5.72;2.95;;;26.60;75.60;;;;;;4980307;28;20832;-75
2022/06/28 07:41:38;;;;;;;6.38;3.20;;;26.60;75.30;;;;;;4981478;28;20446;-74
2022/06/28 07:44:07;;;;;;;6.15;2.92;;;26.70;75.00;;;;;;4981100;28;20212;-75
2022/06/28 07:46:36;;;;;;;7.18;3.10;;;26.80;75.10;;;;;;4978132;28;20204;-74
2022/06/28 07:49:08;;;;;;;4.45;2.90;;;26.80;75.00;;;;;;4983152;28;20197;-75
2022/06/28 07:54:22;;;;;;;6.95;3.20;;;26.80;74.60;;;;;;4984667;28;20732;-74
2022/06/28 07:56:51;;;;;;;9.23;3.42;;;26.90;74.70;;;;;;4979143;28;20224;-74
2022/06/28 07:59:19;;;;;;;4.38;2.90;;;26.90;74.80;;;;;;4982884;28;20196;-75
2022/06/28 08:01:47;;;;;;;6.88;3.05;;;26.90;74.90;;;;;;4983702;28;20201;-74
2022/06/28 08:04:17;;;;;;;7.20;3.60;;;27.00;75.00;;;;;;4983865;28;20655;-74
2022/06/28 08:06:46;;;;;;;12.23;3.40;;;27.00;75.00;;;;;;4985955;28;20205;-74
2022/06/28 08:09:14;;;;;;;6.45;3.78;;;27.10;75.00;;;;;;4981806;28;20752;-74
2022/06/28 08:11:42;;;;;;;5.03;3.25;;;27.10;74.90;;;;;;4981808;28;20201;-74
2022/06/28 08:14:12;;;;;;;5.25;3.40;;;27.10;74.70;;;;;;4985866;28;20547;-74
2022/06/28 08:16:40;;;;;;;6.10;3.40;;;27.20;74.80;;;;;;4982645;28;20193;-73
2022/06/28 08:19:09;;;;;;;4.70;3.00;;;27.20;74.70;;;;;;4977958;28;20230;-73
2022/06/28 08:21:39;;;;;;;6.72;3.78;;;27.20;74.60;;;;;;4979569;28;20220;-74
2022/06/28 08:24:07;;;;;;;8.95;3.30;;;27.20;74.50;;;;;;4984397;28;20209;-74
2022/06/28 08:26:42;;;;;;;6.47;3.65;;;27.30;74.70;;;;;;4980851;28;20202;-75
2022/06/28 08:29:11;;;;;;;8.43;3.30;;;27.30;74.50;;;;;;4982829;28;20219;-74
2022/06/28 08:31:39;;;;;;;6.00;3.08;;;27.30;74.10;;;;;;4979302;28;20668;-74
2022/06/28 08:34:08;;;;;;;6.63;3.33;;;27.30;73.70;;;;;;4981681;28;20917;-74
2022/06/28 08:36:37;;;;;;;8.20;3.40;;;27.30;73.40;;;;;;4984310;28;20591;-74
2022/06/28 08:39:07;;;;;;;13.23;3.60;;;27.40;73.30;;;;;;4983811;28;20284;-74
2022/06/28 08:41:36;;;;;;;6.93;3.42;;;27.40;72.90;;;;;;4982506;28;20942;-74
2022/06/28 08:44:04;;;;;;;5.40;3.33;;;27.40;72.70;;;;;;4984554;28;20564;-75
2022/06/28 08:46:36;;;;;;;6.95;3.63;;;27.40;72.80;;;;;;4984328;28;20212;-76
2022/06/28 08:49:10;;;;;;;6.78;3.40;;;27.40;73.10;;;;;;4983344;28;20722;-75
2022/06/28 08:51:40;;;;;;;4.95;3.35;;;27.40;73.00;;;;;;4986718;28;20208;-77
2022/06/28 08:54:09;;;;;;;6.80;3.28;;;27.40;72.80;;;;;;4986884;28;20216;-76
2022/06/28 08:56:39;;;;;;;5.40;3.50;;;27.40;72.50;;;;;;4981514;28;20737;-74
2022/06/28 08:59:08;;;;;;;6.80;3.17;;;27.40;72.50;;;;;;4983566;28;20194;-76
2022/06/28 09:01:36;;;;;;;6.13;3.30;;;27.40;72.50;;;;;;4982945;28;20197;-75
2022/06/28 09:04:08;;;;;;;6.05;3.40;;;27.40;72.50;;;;;;4995657;28;20228;-76
2022/06/28 09:06:37;;;;;;;6.88;3.40;;;27.40;72.50;;;;;;4986605;28;20251;-75
2022/06/28 09:09:06;;;;;;;4.70;3.28;;;27.40;72.60;;;;;;4985954;28;20202;-75
2022/06/28 09:11:38;;;;;;;8.02;3.47;;;27.40;72.70;;;;;;4991385;28;20201;-75
2022/06/28 09:14:25;;;;;;;5.43;3.70;;;27.40;72.80;;;;;;4991398;28;20221;-75
2022/06/28 09:16:53;;;;;;;8.02;3.65;;;27.40;72.90;;;;;;4975260;28;20225;-75
2022/06/28 09:19:38;;;;;;;6.22;3.70;;;27.40;73.00;;;;;;4984503;28;20239;-74
2022/06/28 09:22:06;;;;;;;9.10;4.10;;;27.40;73.30;;;;;;4983333;28;20209;-75
2022/06/28 09:24:36;;;;;;;10.70;3.60;;;27.30;73.60;;;;;;4984348;28;20209;-74
2022/06/28 09:27:07;;;;;;;5.03;3.53;;;27.30;74.20;;;;;;4983582;28;20208;-75
2022/06/28 09:29:47;;;;;;;8.10;4.28;;;27.30;74.70;;;;;;4990800;28;20873;-74
2022/06/28 09:32:15;;;;;;;6.72;3.67;;;27.20;75.00;;;;;;4983373;28;20197;-75
2022/06/28 09:34:55;;;;;;;6.45;3.58;;;27.20;74.80;;;;;;4986130;28;20327;-75
2022/06/28 09:37:40;;;;;;;6.45;3.30;;;27.20;74.70;;;;;;4986132;28;20241;-75
2022/06/28 09:40:18;;;;;;;10.45;3.70;;;27.30;75.00;;;;;;4981865;28;20670;-75
2022/06/28 09:43:06;;;;;;;6.97;3.63;;;27.20;75.10;;;;;;4976589;28;20298;-75
2022/06/28 09:45:35;;;;;;;12.40;4.40;;;27.30;75.20;;;;;;4989885;28;20197;-75
2022/06/28 09:48:05;;;;;;;5.97;3.70;;;27.30;75.40;;;;;;4984479;28;20197;-75
2022/06/28 09:50:35;;;;;;;6.70;4.15;;;27.30;75.50;;;;;;4986727;28;20240;-74
2022/06/28 09:53:05;;;;;;;7.18;4.10;;;27.30;76.00;;;;;;4982655;28;20229;-73
2022/06/28 09:55:41;;;;;;;8.43;4.10;;;27.30;76.20;;;;;;4979962;28;20193;-75
2022/06/28 09:58:10;;;;;;;9.88;3.97;;;27.30;76.50;;;;;;4979500;28;20200;-74
2022/06/28 10:00:39;;;;;;;8.95;4.40;;;27.30;76.70;;;;;;4985613;28;20205;-75
2022/06/28 10:03:09;;;;;;;6.90;4.45;;;27.30;77.00;;;;;;4984863;28;20263;-75
2022/06/28 10:05:38;;;;;;;9.18;4.03;;;27.30;77.20;;;;;;4984486;28;20208;-75
2022/06/28 10:08:07;;;;;;;7.43;3.75;;;27.30;77.50;;;;;;4981814;28;20734;-74
2022/06/28 10:10:38;;;;;;;7.78;3.78;;;27.30;77.70;;;;;;4990878;28;20924;-74
2022/06/28 10:16:08;;;;;;;7.38;4.18;;;27.30;77.70;;;;;;4977551;28;20189;-75
2022/06/28 10:18:38;;;;;;;6.30;3.72;;;27.30;77.70;;;;;;4984196;28;20193;-74
2022/06/28 10:21:06;;;;;;;8.93;4.30;;;27.30;77.70;;;;;;4983417;28;20642;-74
2022/06/28 10:23:37;;;;;;;9.82;4.25;;;27.30;78.00;;;;;;4984001;28;20193;-75
2022/06/28 10:26:09;;;;;;;8.18;5.18;;;27.20;78.30;;;;;;4983009;28;20189;-75
2022/06/28 10:28:43;;;;;;;6.07;4.80;;;27.20;79.50;;;;;;4983626;28;20196;-76
2022/06/28 10:31:37;;;;;;;10.57;4.68;;;27.20;79.00;;;;;;4982865;28;20204;-75
2022/06/28 10:34:16;;;;;;;8.80;4.90;;;27.10;79.50;;;;;;4991062;28;20298;-75
2022/06/28 10:36:51;;;;;;;7.30;4.97;;;27.00;79.70;;;;;;4987467;28;20189;-75
2022/06/28 10:39:22;;;;;;;10.10;5.47;;;27.00;80.10;;;;;;4982874;28;20196;-74
2022/06/28 10:41:52;;;;;;;8.15;5.38;;;27.00;80.40;;;;;;4983860;28;20189;-76
2022/06/28 10:44:23;;;;;;;7.90;4.90;;;26.90;81.00;;;;;;4980702;28;20204;-75
2022/06/28 10:47:10;;;;;;;9.30;5.32;;;26.80;81.00;;;;;;4983760;28;20787;-75
2022/06/28 10:50:00;;;;;;;8.18;4.80;;;26.80;81.60;;;;;;4980883;28;20203;-75
2022/06/28 10:52:32;;;;;;;10.18;4.80;;;26.80;81.40;;;;;;4985847;28;20204;-75
2022/06/28 10:55:31;;;;;;;8.70;4.75;;;26.80;81.50;;;;;;4981599;28;20860;-75
2022/06/28 10:58:20;;;;;;;9.65;5.35;;;26.80;81.90;;;;;;4975854;28;20204;-75
2022/06/28 11:00:54;;;;;;;8.32;5.38;;;26.70;82.10;;;;;;4975130;28;20196;-76
2022/06/28 11:03:23;;;;;;;7.60;4.38;;;26.70;82.20;;;;;;4983791;28;20231;-75
2022/06/28 11:05:53;;;;;;;9.23;4.75;;;26.70;82.10;;;;;;4983417;28;20654;-75
2022/06/28 11:08:58;;;;;;;6.45;4.22;;;26.70;82.00;;;;;;4981434;28;20185;-74
2022/06/28 11:11:30;;;;;;;6.82;4.30;;;26.70;81.90;;;;;;4977863;28;20189;-75
2022/06/28 11:14:37;;;;;;;9.32;4.38;;;26.70;81.60;;;;;;4980840;28;20576;-76
2022/06/28 11:17:17;;;;;;;11.68;5.40;;;26.70;82.50;;;;;;4965848;28;20810;-75
2022/06/28 11:19:53;;;;;;;9.55;4.72;;;26.60;81.50;;;;;;4979644;28;20243;-75
2022/06/28 11:22:24;;;;;;;8.85;4.85;;;26.60;81.50;;;;;;4981181;28;20212;-75
2022/06/28 11:24:54;;;;;;;8.45;4.90;;;26.60;81.60;;;;;;4984418;28;20201;-76
2022/06/28 11:27:22;;;;;;;10.60;4.85;;;26.60;81.60;;;;;;4979733;28;20189;-75
2022/06/28 11:29:55;;;;;;;8.90;5.10;;;26.60;82.00;;;;;;4980405;28;20888;-76
2022/06/28 11:32:29;;;;;;;6.75;4.38;;;26.60;82.10;;;;;;4977910;28;20702;-76
2022/06/28 11:35:02;;;;;;;7.20;4.20;;;26.60;82.10;;;;;;4982395;28;20215;-75
2022/06/28 11:37:33;;;;;;;8.00;4.13;;;26.60;82.20;;;;;;4982126;28;20189;-75
2022/06/28 11:40:03;;;;;;;10.85;4.50;;;26.60;82.10;;;;;;4982463;28;20547;-76
2022/06/28 11:42:32;;;;;;;7.40;4.15;;;26.70;82.00;;;;;;4970029;28;20691;-76
2022/06/28 11:45:00;;;;;;;7.38;4.25;;;26.70;81.90;;;;;;4982512;28;20193;-76
2022/06/28 11:47:31;;;;;;;8.18;4.15;;;26.70;81.90;;;;;;4981010;28;20678;-76
2022/06/28 11:50:14;;;;;;;8.82;3.90;;;26.70;82.20;;;;;;4981993;28;20212;-76
2022/06/28 11:52:54;;;;;;;9.43;3.70;;;26.80;82.60;;;;;;4978141;28;20213;-76
2022/06/28 11:55:38;;;;;;;6.13;3.50;;;26.80;82.70;;;;;;4981239;28;20220;-75
2022/06/28 11:58:18;;;;;;;6.65;3.90;;;26.80;82.40;;;;;;4976781;28;20687;-76
2022/06/28 12:01:07;;;;;;;5.60;3.35;;;26.80;82.10;;;;;;4978809;28;20222;-75
2022/06/28 12:03:56;;;;;;;10.45;3.33;;;26.90;81.80;;;;;;4982857;28;20205;-76
2022/06/28 12:06:28;;;;;;;6.57;4.00;;;27.00;81.50;;;;;;4970557;28;20197;-76
2022/06/28 12:08:59;;;;;;;6.55;3.55;;;27.10;81.10;;;;;;4984039;28;20192;-74
2022/06/28 12:11:40;;;;;;;5.43;3.33;;;27.10;80.60;;;;;;4981684;28;20733;-74
2022/06/28 12:14:12;;;;;;;6.13;2.70;;;27.20;80.30;;;;;;4973951;28;20617;-74
2022/06/28 12:16:43;;;;;;;3.78;2.67;;;27.30;79.90;;;;;;4982675;28;20193;-74
2022/06/28 12:19:15;;;;;;;4.90;2.63;;;27.30;79.30;;;;;;4982006;28;20595;-74
2022/06/28 12:22:00;;;;;;;6.10;2.83;;;27.40;78.70;;;;;;4983291;28;20193;-74
2022/06/28 12:24:45;;;;;;;5.15;2.72;;;27.50;78.30;;;;;;4975006;28;20190;-74
2022/06/28 12:27:15;;;;;;;5.05;2.92;;;27.50;77.60;;;;;;4969425;28;20201;-74
2022/06/28 12:29:43;;;;;;;10.02;3.42;;;27.60;77.40;;;;;;4978892;28;20562;-73
2022/06/28 12:32:12;;;;;;;4.40;2.97;;;27.70;77.20;;;;;;4983313;28;20205;-73
2022/06/28 12:35:04;;;;;;;5.32;2.63;;;27.70;77.10;;;;;;4983655;28;20749;-73
2022/06/28 12:37:32;;;;;;;9.70;2.60;;;27.80;76.80;;;;;;4988095;28;20200;-75
2022/06/28 12:40:02;;;;;;;2.70;2.10;;;27.90;76.10;;;;;;4989421;28;20787;-74
2022/06/28 12:42:32;;;;;;;3.42;2.20;;;27.90;75.30;;;;;;4980467;28;20788;-74
2022/06/28 12:45:01;;;;;;;4.05;2.67;;;28.00;74.40;;;;;;4975567;28;20200;-74
2022/06/28 12:47:30;;;;;;;9.00;3.10;;;28.00;73.90;;;;;;4978995;28;20208;-73
2022/06/28 12:50:02;;;;;;;5.05;2.85;;;28.00;73.60;;;;;;4978704;28;20730;-73
2022/06/28 12:52:34;;;;;;;6.05;2.58;;;28.10;73.80;;;;;;4980130;28;20280;-74
2022/06/28 12:55:03;;;;;;;5.35;2.50;;;28.20;73.80;;;;;;4987298;28;20745;-75
2022/06/28 12:57:31;;;;;;;4.03;2.50;;;28.30;74.50;;;;;;4982009;28;20189;-75
2022/06/28 12:59:59;;;;;;;5.53;1.98;;;28.40;72.90;;;;;;4975086;28;20220;-73
2022/06/28 13:02:29;;;;;;;6.50;2.38;;;28.40;72.70;;;;;;4999207;28;20197;-73
2022/06/28 13:04:57;;;;;;;2.72;1.90;;;28.50;72.40;;;;;;4983652;28;20197;-74
2022/06/28 13:07:25;;;;;;;4.28;2.50;;;28.70;71.00;;;;;;4982474;28;20198;-73
2022/06/28 13:09:55;;;;;;;3.55;1.85;;;28.90;71.40;;;;;;4983785;28;20669;-75
2022/06/28 13:12:24;;;;;;;4.80;2.10;;;29.20;69.90;;;;;;4979521;28;20208;-74
2022/06/28 13:14:53;;;;;;;3.10;2.42;;;29.50;69.70;;;;;;4982976;28;20228;-75
2022/06/28 13:17:23;;;;;;;3.50;2.20;;;29.80;68.30;;;;;;4984097;28;20220;-73